Aktualne dane pomiarowe

Uwaga, wersja testowa! Automatyczne pobieranie danych za pomocą narzędzi lub skryptów to umożliwiających jest zabronione.

Dane meteo z obszaru Polski uzyskane na podstawie depesz SYNOP pobieranych co godzinę z NWS. Najedź myszką na symbol przedstawiony w tabeli, aby uzyskać informacje co do jego znaczenia. Prosimy pamiętać, że to testowa wersja strony, która jeszcze nie jest ukończona. Stworzono również jest krótki FAQ dotyczący korzystania z tej podstrony Anomalie temperatury w chwili obecnej odniesione są do okresu referencyjnego 1951-2016. Okres ten będzie później zmieniony na 1981-2010. Kliknij ikonę aby pobrać plik CSV. Kliknij ikonę aby wygenerować mapę synoptyczną dla danego terminu.

Wybierz Datę:    

        

Wieluń (12455)

Dane terminowe dla wybranej stacji. Kliknij datę, aby otrzymać dane z tego terminu dla wszystkich stacji.

TemperaturaZachmurzenieWiatrCiśnienieOpadyPogoda
 Data t td wb tx tn tg rh  Nt Nl Cl Cm Ch ws wd g1 g2 wx mslp ppp ch 24h 12h t ww ww w1 w2  
2019-07-20 23:00:00 19.9 13.4 15.7--- 6625.0wx-wx2wx--21015.0 991.7 -0.2---------
2019-07-20 22:00:00 19.8 13.5 15.7--- 6718.0wx-wx2wx--21015.4 992.1 0.3---------
2019-07-20 21:00:00 20.4 13.8 16.1--- 6618.0wx-wx1wx---1015.3 992.1 0.6---------
2019-07-20 20:00:00 21.8 14.4 17.0--- 6318.0wx-wxwx2wx--21015.0 991.9 0.3---------
2019-07-20 19:00:00 23.3 13.7 17.2--- 5514.0wx-wxwx1wx--11014.8 991.8 0.1---------
2019-07-20 18:00:00 26.6 13.0 18.2 29.5 19.0- 4330.0wxwxwxwx1wx--11014.2 991.5 -0.5- 0.012------
2019-07-20 17:00:00 28.1 11.2 18.0--- 3535.0wxwxwxwxwx2wx--21014.2 991.6 -0.5---------
2019-07-20 16:00:00 28.6 11.2 18.2--- 3430.0wxwxwxwxwx3wx--31014.3 991.7 -0.6---------
2019-07-20 15:00:00 28.8 10.9 18.1--- 3330.0wxwxwxwxwx3wx---1014.6 992.0 -0.6---------
2019-07-20 14:00:00 28.9 11.0 18.2--- 3330.0wxwxwxwx3wx--31014.7 992.1 -0.9---------
2019-07-20 13:00:00 28.9 11.0 18.2--- 3335.0wxwxwxwx3wx--31014.9 992.3 -0.8---------
2019-07-20 12:00:00 27.6 11.6 17.9--- 3730.0wxwxwxwx2wx--21015.3 992.6 -0.8- 0.06------
2019-07-20 11:00:00 26.8 12.8 18.2--- 4235.0wxwxwxwx2wx--21015.8 993.0 -0.5---------
2019-07-20 10:00:00 25.8 12.6 17.7--- 4430.0wxwxwxwx2wx--21015.9 993.1 -0.3---------
2019-07-20 09:00:00 24.9 13.8 17.9--- 5024.0wxwxwxwxwx1wx--11016.3 993.4 0.3---------
2019-07-20 08:00:00 23.2 15.0 17.9--- 6016.0wxwxwxwxwx1wx--11016.5 993.5 0.6---------
2019-07-20 07:00:00 20.9 15.7 17.4--- 7215.0wx-wxwx1wx--11016.6 993.4 0.7---------
2019-07-20 06:00:00 19.0 15.9 16.8 19.6 15.8 13 8212.0wxwxwxwx2wx--21016.5 993.1 0.5 1.7 0.212----- 6.5
2019-07-20 05:00:00 17.5 15.3 15.9--- 8711.0wxwxwxwx1wx---1016.4 992.9 0.5---------
2019-07-20 04:00:00 16.7 14.7 15.3--- 8811.0wx-wx1wx--11016.3 992.7 0.6---------
2019-07-20 03:00:00 16.7 14.7 15.3--- 8812.0wx-wx1wx--11016.1 992.6 0.5---------
2019-07-20 02:00:00 16.7 14.5 15.2--- 8713.0wx-wx1wx--11015.9 992.4 0.3---------
2019-07-20 01:00:00 15.9 14.1 14.6--- 899.0wx-wxwx1wx--11015.7 992.1 -0.1---wx---
2019-07-20 00:00:00 16.9 14.5 15.2--- 8612.0wx-wx1wx--11015.6 992.1 0.2- 0.26wx-w1--
2019-07-19 23:00:00 17.2 15.2 15.8--- 8810.0wxwxwxwx1wx---1015.6 992.1 0.3---wx---
2019-07-19 22:00:00 18.4 15.3 16.3--- 8214.0wx-wx2wx--21015.6 992.2 0.7---------
2019-07-19 21:00:00 18.5 15.7 16.5--- 8415.0wx-wx1wx--11015.3 991.9 0.6---------
2019-07-19 20:00:00 18.5 16.3 16.9--- 8712.0wx-wx1wx--11015.2 991.8 0.6---------
2019-07-19 19:00:00 19.1 16.1 17.0--- 8314.0wxwxwxwx1wx--11014.8 991.5 0.3---------
2019-07-19 18:00:00 19.6 16.8 17.6 28.7 17.4- 8420.0wxwxwxwx1wx-811014.6 991.3 -0.1- 2.012wx-w1--
2019-07-19 17:00:00 19.8 15.6 16.9--- 7723.0wxwxwx2wx--21014.5 991.2 0.5---wx---
2019-07-19 16:00:00 19.5 15.2 16.6--- 7626.0wxwxwxwxwx3wx--31014.5 991.2 0.6---wx---
2019-07-19 15:00:00 18.4 14.1 15.5--- 7614.0wxwxwx3wx-831014.8 991.4 1.4---wx---
2019-07-19 14:00:00 24.7 10.9 16.5--- 4235.0wxwxwxwxwx1wx--11013.6 990.7 0.6---------
2019-07-19 13:00:00 23.6 14.0 17.5--- 5530.0wxwxwxwxwx2wx-821013.5 990.6 0.0---wx---
2019-07-19 12:00:00 27.6 8.0 16.4--- 2935.0wxwxwxwxwx3wx--31012.6 990.0 -0.7--6wx-w1--
2019-07-19 11:00:00 27.1 8.5 16.4--- 3130.0wxwxwxwxwx2wx--21012.8 990.1 -0.5---------
2019-07-19 10:00:00 26.0 9.8 16.5--- 3635.0wxwxwxwxwx2wx--21013.4 990.6 0.0---------
2019-07-19 09:00:00 23.3 9.7 15.3--- 4240.0wxwxwxwx1wx--11013.7 990.7 0.1---wx---
2019-07-19 08:00:00 24.9 8.0 15.3--- 3435.0wx-wxwx2wx--21013.4 990.6 0.2---------
2019-07-19 07:00:00 23.8 8.2 14.9--- 3730.0wx-wxwx2wx--21013.5 990.6 0.3---------
2019-07-19 06:00:00 21.6 9.2 14.4 23.4 11.2 8 4535.0wx-wx2wx--21013.7 990.6 0.2- 0.012----- 11.6
2019-07-19 05:00:00 17.7 9.8 12.9--- 6040.0wx-wxwx1wx--11013.8 990.4 0.1---------
2019-07-19 04:00:00 14.3 8.0 10.5--- 6645.0wx-wxwx2wx--21014.0 990.3 -0.1----22----
2019-07-19 03:00:00 12.9 6.9 9.3--- 6745.0wx-wxwx1wx--11014.2 990.4 0.0----22----
2019-07-19 02:00:00 12.2 7.1 9.1--- 7140.0wx-wxwx1wx--11014.2 990.3 0.0----22----
2019-07-19 01:00:00 13.3 6.6 9.4--- 6440.0wx-wx1wx--11014.2 990.4 0.3---------
2019-07-19 00:00:00 12.6 7.3 9.4--- 7028.0wx-wx0---01014.2 990.4 0.4- 0.06------
1.8 ms

 

Print Friendly, PDF & Email